createdAt,value
2018-09-09T00:00:01.971Z,77.36
2018-09-09T00:01:02.007Z,77.36
2018-09-09T00:02:01.995Z,77.56
2018-09-09T00:03:01.937Z,77.47
2018-09-09T00:04:01.929Z,77.47
2018-09-09T00:05:01.918Z,77.77
2018-09-09T00:06:01.925Z,77.94
2018-09-09T00:07:01.956Z,77.36
2018-09-09T00:08:01.881Z,77.67
2018-09-09T00:09:01.873Z,77.06
2018-09-09T00:10:01.871Z,77.36
2018-09-09T00:11:01.881Z,77.16
2018-09-09T00:12:01.875Z,77.47
2018-09-09T00:13:01.819Z,76.95
2018-09-09T00:14:01.810Z,77.06
2018-09-09T00:15:01.801Z,76.65
2018-09-09T00:16:01.792Z,76.61
2018-09-09T00:17:01.803Z,76.31
2018-09-09T00:18:01.763Z,76.41
2018-09-09T00:19:01.749Z,76.41
2018-09-09T00:20:01.746Z,75.80
2018-09-09T00:21:01.727Z,76.21
2018-09-09T00:22:01.742Z,76.01
2018-09-09T00:23:01.710Z,76.10
2018-09-09T00:24:01.689Z,75.80
2018-09-09T00:25:01.679Z,75.80
2018-09-09T00:26:01.675Z,75.90
2018-09-09T00:27:01.682Z,75.49
2018-09-09T00:28:01.651Z,76.25
2018-09-09T00:29:01.641Z,75.70
2018-09-09T00:30:01.625Z,75.90
2018-09-09T00:31:01.611Z,75.80
2018-09-09T00:32:01.624Z,75.40
2018-09-09T00:33:01.597Z,75.19
2018-09-09T00:34:01.572Z,74.82
2018-09-09T00:35:01.570Z,74.79
2018-09-09T00:36:01.549Z,74.88
2018-09-09T00:37:01.560Z,74.68
2018-09-09T00:38:01.536Z,74.79
2018-09-09T00:39:01.514Z,74.99
2018-09-09T00:40:01.512Z,75.09
2018-09-09T00:41:01.494Z,74.68
2018-09-09T00:42:01.500Z,75.40
2018-09-09T00:43:01.476Z,74.99
2018-09-09T00:44:01.456Z,75.23
2018-09-09T00:45:01.445Z,75.60
2018-09-09T00:46:01.441Z,75.29
2018-09-09T00:47:01.450Z,75.90
2018-09-09T00:48:01.417Z,75.80
2018-09-09T00:49:01.397Z,75.80
2018-09-09T00:50:01.395Z,75.80
2018-09-09T00:51:01.378Z,75.80
2018-09-09T00:52:01.393Z,76.10
2018-09-09T00:53:01.359Z,76.04
2018-09-09T00:54:01.338Z,76.25
2018-09-09T00:55:01.336Z,76.04
2018-09-09T00:56:01.315Z,76.31
2018-09-09T00:57:01.336Z,76.61
2018-09-09T00:58:01.301Z,76.51
2018-09-09T00:59:01.279Z,76.86
2018-09-09T01:00:01.277Z,76.86
2018-09-09T01:01:01.266Z,76.95
2018-09-09T01:02:01.276Z,77.47
2018-09-09T01:03:01.241Z,77.16
2018-09-09T01:04:01.226Z,77.36
2018-09-09T01:05:01.216Z,76.75
2018-09-09T01:06:01.223Z,77.12
2018-09-09T01:07:01.186Z,77.47
2018-09-09T01:08:01.184Z,77.22
2018-09-09T01:09:01.172Z,77.56
2018-09-09T01:10:01.152Z,77.56
2018-09-09T01:11:01.165Z,77.06
2018-09-09T01:12:01.134Z,77.16
2018-09-09T01:13:01.125Z,77.36
2018-09-09T01:14:01.105Z,77.36
2018-09-09T01:15:01.101Z,77.36
2018-09-09T01:16:01.104Z,77.36
2018-09-09T01:17:01.076Z,77.26
2018-09-09T01:18:01.065Z,76.86
2018-09-09T01:19:01.049Z,77.26
2018-09-09T01:20:01.037Z,77.47
2018-09-09T01:21:01.045Z,77.16
2018-09-09T01:22:01.019Z,77.16
2018-09-09T01:23:00.998Z,77.06
2018-09-09T01:24:00.996Z,77.16
2018-09-09T01:25:00.983Z,77.36
2018-09-09T01:26:00.988Z,77.36
2018-09-09T01:27:00.970Z,77.16
2018-09-09T01:28:00.942Z,76.75
2018-09-09T01:29:00.935Z,76.95
2018-09-09T01:30:00.920Z,76.75
2018-09-09T01:31:00.933Z,76.75
2018-09-09T01:32:00.896Z,76.86
2018-09-09T01:33:00.895Z,76.79
2018-09-09T01:34:00.876Z,76.55
2018-09-09T01:35:00.867Z,76.86
2018-09-09T01:36:00.870Z,77.47
2018-09-09T01:37:00.839Z,77.16
2018-09-09T01:38:00.829Z,76.86
2018-09-09T01:39:00.822Z,76.86
2018-09-09T01:40:00.799Z,77.56
2018-09-09T01:41:00.816Z,77.36
2018-09-09T01:42:00.780Z,77.06
2018-09-09T01:43:00.764Z,77.16
2018-09-09T01:44:00.763Z,76.95
2018-09-09T01:45:00.745Z,76.95
2018-09-09T01:46:00.752Z,76.95
2018-09-09T01:47:00.722Z,77.06
2018-09-09T01:48:00.713Z,77.06
2018-09-09T01:49:00.703Z,76.65
2018-09-09T01:50:00.692Z,76.65
2018-09-09T01:51:00.694Z,76.86
2018-09-09T01:52:00.663Z,76.45
2018-09-09T01:53:00.655Z,76.65
2018-09-09T01:54:00.639Z,76.75
2018-09-09T01:55:00.631Z,76.75
2018-09-09T01:56:00.641Z,76.95
2018-09-09T01:57:00.611Z,76.25
2018-09-09T01:58:00.595Z,76.75
2018-09-09T01:59:00.584Z,76.95
2018-09-09T02:00:00.570Z,76.75
2018-09-09T02:01:00.584Z,77.16
2018-09-09T02:02:00.543Z,77.16
2018-09-09T02:03:00.535Z,77.06
2018-09-09T02:04:00.540Z,76.95
2018-09-09T02:05:00.508Z,76.95
2018-09-09T02:06:00.499Z,77.06
2018-09-09T02:07:00.493Z,77.47
2018-09-09T02:08:00.476Z,77.36
2018-09-09T02:09:00.490Z,77.47
2018-09-09T02:10:00.452Z,77.26
2018-09-09T02:11:00.444Z,77.16
2018-09-09T02:12:00.428Z,77.16
2018-09-09T02:13:00.423Z,76.86
2018-09-09T02:14:00.435Z,77.16
2018-09-09T02:15:00.399Z,77.26
2018-09-09T02:16:00.382Z,77.16
2018-09-09T02:17:00.368Z,77.06
2018-09-09T02:18:00.360Z,77.36
2018-09-09T02:19:00.349Z,76.95
2018-09-09T02:20:00.358Z,77.26
2018-09-09T02:21:00.329Z,77.26
2018-09-09T02:22:00.309Z,76.95
2018-09-09T02:23:00.300Z,76.95
2018-09-09T02:24:00.286Z,77.16
2018-09-09T02:25:00.301Z,77.06
2018-09-09T02:26:00.269Z,77.47
2018-09-09T02:27:00.259Z,77.06
2018-09-09T02:28:00.240Z,77.26
2018-09-09T02:29:00.233Z,77.16
2018-09-09T02:30:00.240Z,77.26
2018-09-09T02:31:00.208Z,76.86
2018-09-09T02:32:00.201Z,76.75
2018-09-09T02:33:00.187Z,77.16
2018-09-09T02:34:00.169Z,77.06
2018-09-09T02:35:00.184Z,76.25
2018-09-09T02:36:00.152Z,76.45
2018-09-09T02:37:00.141Z,76.59
2018-09-09T02:38:00.126Z,76.25
2018-09-09T02:39:00.117Z,76.34
2018-09-09T02:40:00.130Z,76.55
2018-09-09T02:41:00.093Z,76.45
2018-09-09T02:42:00.078Z,76.48
2018-09-09T02:43:00.063Z,76.65
2018-09-09T02:44:00.062Z,76.34
2018-09-09T02:45:00.072Z,76.65
2018-09-09T02:46:00.040Z,76.45
2018-09-09T02:47:00.025Z,76.45
2018-09-09T02:48:00.005Z,76.25
2018-09-09T02:48:59.999Z,76.25
2018-09-09T02:49:59.990Z,76.14
2018-09-09T02:50:59.997Z,76.04
2018-09-09T02:51:59.960Z,75.94
2018-09-09T02:52:59.955Z,75.94
2018-09-09T02:53:59.935Z,75.84
2018-09-09T02:54:59.955Z,76.25
2018-09-09T02:55:59.917Z,76.34
2018-09-09T02:56:59.908Z,75.98
2018-09-09T02:57:59.887Z,76.04
2018-09-09T02:58:59.887Z,75.12
2018-09-09T02:59:59.894Z,75.33
2018-09-09T03:00:59.864Z,75.43
2018-09-09T03:01:59.845Z,75.33
2018-09-09T03:02:59.835Z,75.23
2018-09-09T03:03:59.821Z,75.73
2018-09-09T03:04:59.824Z,75.23
2018-09-09T03:05:59.821Z,75.53
2018-09-09T03:06:59.786Z,75.53
2018-09-09T03:07:59.771Z,75.63
2018-09-09T03:08:59.765Z,75.84
2018-09-09T03:09:59.751Z,75.43
2018-09-09T03:10:59.765Z,75.84
2018-09-09T03:11:59.727Z,75.53
2018-09-09T03:12:59.720Z,75.43
2018-09-09T03:13:59.705Z,75.43
2018-09-09T03:14:59.699Z,75.33
2018-09-09T03:15:59.702Z,75.33
2018-09-09T03:16:59.675Z,75.63
2018-09-09T03:17:59.654Z,75.33
2018-09-09T03:18:59.651Z,75.53
2018-09-09T03:19:59.630Z,75.23
2018-09-09T03:20:59.653Z,75.02
2018-09-09T03:21:59.610Z,74.72
2018-09-09T03:22:59.605Z,74.52
2018-09-09T03:23:59.586Z,74.92
2018-09-09T03:24:59.576Z,74.41
2018-09-09T03:25:59.568Z,74.62
2018-09-09T03:26:59.574Z,74.52
2018-09-09T03:27:59.543Z,74.72
2018-09-09T03:28:59.539Z,74.28
2018-09-09T03:29:59.514Z,74.31
2018-09-09T03:30:59.512Z,74.28
2018-09-09T03:31:59.513Z,73.97
2018-09-09T03:32:59.478Z,74.11
2018-09-09T03:33:59.475Z,74.58
2018-09-09T03:34:59.454Z,74.79
2018-09-09T03:35:59.454Z,74.68
2018-09-09T03:36:59.461Z,74.38
2018-09-09T03:37:59.420Z,74.79
2018-09-09T03:38:59.411Z,74.88
2018-09-09T03:39:59.402Z,75.90
2018-09-09T03:40:59.386Z,74.28
2018-09-09T03:41:59.405Z,74.62
2018-09-09T03:42:59.367Z,74.58
2018-09-09T03:43:59.355Z,73.97
2018-09-09T03:44:59.344Z,74.82
2018-09-09T03:45:59.332Z,74.68
2018-09-09T03:46:59.338Z,74.48
2018-09-09T03:47:59.311Z,74.62
2018-09-09T03:48:59.293Z,74.18
2018-09-09T03:49:59.336Z,73.91
2018-09-09T03:50:59.281Z,73.46
2018-09-09T03:51:59.279Z,74.11
2018-09-09T03:52:59.249Z,73.57
2018-09-09T03:53:59.235Z,73.30
2018-09-09T03:54:59.225Z,74.01
2018-09-09T03:55:59.212Z,74.07
2018-09-09T03:56:59.227Z,73.16
2018-09-09T03:57:59.193Z,73.19
2018-09-09T03:58:59.181Z,73.26
2018-09-09T03:59:59.167Z,73.50
2018-09-09T04:00:59.159Z,73.06
2018-09-09T04:01:59.161Z,73.26
2018-09-09T04:02:59.139Z,72.96
2018-09-09T04:03:59.116Z,73.26
2018-09-09T04:04:59.104Z,73.70
2018-09-09T04:05:59.100Z,73.77
2018-09-09T04:06:59.101Z,73.87
2018-09-09T04:07:59.078Z,73.67
2018-09-09T04:08:59.064Z,74.18
2018-09-09T04:09:59.112Z,73.39
2018-09-09T04:10:59.037Z,73.06
2018-09-09T04:11:59.049Z,73.16
2018-09-09T04:12:59.010Z,73.06
2018-09-09T04:13:59.002Z,72.75
2018-09-09T04:14:58.993Z,73.06
2018-09-09T04:15:58.976Z,72.04
2018-09-09T04:16:58.985Z,72.34
2018-09-09T04:17:58.965Z,72.55
2018-09-09T04:18:58.942Z,72.01
2018-09-09T04:19:58.937Z,71.84
2018-09-09T04:20:58.925Z,70.18
2018-09-09T04:21:58.928Z,70.89
2018-09-09T04:22:58.903Z,70.59
2018-09-09T04:23:58.881Z,70.15
2018-09-09T04:24:58.871Z,70.45
2018-09-09T04:25:58.868Z,70.25
2018-09-09T04:26:58.868Z,69.84
2018-09-09T04:27:58.843Z,69.95
2018-09-09T04:28:58.840Z,69.74
2018-09-09T04:29:58.811Z,69.34
2018-09-09T04:30:58.901Z,70.15
2018-09-09T04:31:58.810Z,68.73
2018-09-09T04:32:58.784Z,69.54
2018-09-09T04:33:58.765Z,69.10
2018-09-09T04:34:58.764Z,69.95
2018-09-09T04:35:58.739Z,69.43
2018-09-09T04:36:58.751Z,69.13
2018-09-09T04:37:58.728Z,69.74
2018-09-09T04:38:58.706Z,69.74
2018-09-09T04:39:58.704Z,69.43
2018-09-09T04:40:58.684Z,69.34
2018-09-09T04:41:58.699Z,69.74
2018-09-09T04:42:58.662Z,69.43
2018-09-09T04:43:58.654Z,69.95
2018-09-09T04:44:58.642Z,69.74
2018-09-09T04:45:58.628Z,70.15
2018-09-09T04:46:58.641Z,70.25
2018-09-09T04:47:58.603Z,70.55
2018-09-09T04:48:58.595Z,69.95
2018-09-09T04:49:58.580Z,69.84
2018-09-09T04:50:58.566Z,70.25
2018-09-09T04:51:58.584Z,70.15
2018-09-09T04:52:58.552Z,70.55
2018-09-09T04:53:58.544Z,69.95
2018-09-09T04:54:58.526Z,70.96
2018-09-09T04:55:58.510Z,70.99
2018-09-09T04:56:58.520Z,70.86
2018-09-09T04:57:58.496Z,70.48
2018-09-09T04:58:58.474Z,70.89
2018-09-09T04:59:58.474Z,69.87
2018-09-09T05:00:58.454Z,69.84
2018-09-09T05:01:58.469Z,70.55
2018-09-09T05:02:58.429Z,69.95
2018-09-09T05:03:58.418Z,69.98
2018-09-09T05:04:58.412Z,70.28
2018-09-09T05:05:58.392Z,70.15
2018-09-09T05:06:58.409Z,70.86
2018-09-09T05:07:58.370Z,69.95
2018-09-09T05:08:58.357Z,70.86
2018-09-09T05:09:58.354Z,70.35
2018-09-09T05:10:58.334Z,70.35
2018-09-09T05:11:58.353Z,69.84
2018-09-09T05:12:58.316Z,70.04
2018-09-09T05:13:58.306Z,70.15
2018-09-09T05:14:58.296Z,70.45
2018-09-09T05:15:58.275Z,69.95
2018-09-09T05:16:58.288Z,70.59
2018-09-09T05:17:58.260Z,70.28
2018-09-09T05:18:58.241Z,70.35
2018-09-09T05:19:58.238Z,70.18
2018-09-09T05:20:58.218Z,70.55
2018-09-09T05:21:58.237Z,70.45
2018-09-09T05:22:58.196Z,70.86
2018-09-09T05:23:58.195Z,70.18
2018-09-09T05:24:58.186Z,70.25
2018-09-09T05:25:58.160Z,69.87
2018-09-09T05:26:58.182Z,69.95
2018-09-09T05:27:58.138Z,70.04
2018-09-09T05:28:58.127Z,70.65
2018-09-09T05:29:58.116Z,70.86
2018-09-09T05:30:58.105Z,70.96
2018-09-09T05:31:58.119Z,71.09
2018-09-09T05:32:58.077Z,70.76
2018-09-09T05:33:58.077Z,70.86
2018-09-09T05:34:58.057Z,70.45
2018-09-09T05:35:58.047Z,70.04
2018-09-09T05:36:58.055Z,70.45
2018-09-09T05:37:58.030Z,69.84
2018-09-09T05:38:58.010Z,69.95
2018-09-09T05:39:58.007Z,70.15
2018-09-09T05:40:57.990Z,70.25
2018-09-09T05:41:58.003Z,70.04
2018-09-09T05:42:57.967Z,69.95
2018-09-09T05:43:57.959Z,69.51
2018-09-09T05:44:57.942Z,69.23
2018-09-09T05:45:57.935Z,69.51
2018-09-09T05:46:57.948Z,69.51
2018-09-09T05:47:57.918Z,68.79
2018-09-09T05:48:57.933Z,69.10
2018-09-09T05:49:57.892Z,69.71
2018-09-09T05:50:57.882Z,68.79
2018-09-09T05:51:57.891Z,69.51
2018-09-09T05:52:57.861Z,68.70
2018-09-09T05:53:57.881Z,68.79
2018-09-09T05:54:57.836Z,68.90
2018-09-09T05:55:57.822Z,68.79
2018-09-09T05:56:57.834Z,68.76
2018-09-09T05:57:57.797Z,68.76
2018-09-09T05:58:57.783Z,68.76
2018-09-09T05:59:57.780Z,68.90
2018-09-09T06:00:57.761Z,68.76
2018-09-09T06:01:57.771Z,68.26
2018-09-09T06:02:57.746Z,68.66
2018-09-09T06:03:57.731Z,68.26
2018-09-09T06:04:57.720Z,68.43
2018-09-09T06:05:57.708Z,68.93
2018-09-09T06:06:57.718Z,69.07
2018-09-09T06:07:57.681Z,69.44
2018-09-09T06:08:57.668Z,69.68
2018-09-09T06:09:57.664Z,68.93
2018-09-09T06:10:57.645Z,68.32
2018-09-09T06:11:57.688Z,69.03
2018-09-09T06:12:57.737Z,68.46
2018-09-09T06:13:57.613Z,67.92
2018-09-09T06:14:57.607Z,68.32
2018-09-09T06:15:57.585Z,68.02
2018-09-09T06:16:57.603Z,68.32
2018-09-09T06:17:57.574Z,68.70
2018-09-09T06:18:57.556Z,68.93
2018-09-09T06:19:57.548Z,68.93
2018-09-09T06:20:57.530Z,67.11
2018-09-09T06:21:57.543Z,67.41
2018-09-09T06:22:57.513Z,67.99
2018-09-09T06:23:57.650Z,67.99
2018-09-09T06:24:57.485Z,68.49
2018-09-09T06:25:57.475Z,66.74
2018-09-09T06:26:57.483Z,64.51
2018-09-09T06:27:57.453Z,65.15
2018-09-09T06:28:57.444Z,64.51
2018-09-09T06:29:57.516Z,64.92
2018-09-09T06:30:58.328Z,64.21
2018-09-09T06:31:57.424Z,64.48
2018-09-09T06:32:57.396Z,64.58
2018-09-09T06:33:57.483Z,65.19
2018-09-09T06:34:57.366Z,64.99
2018-09-09T06:35:57.377Z,65.67
2018-09-09T06:36:57.363Z,65.90
2018-09-09T06:37:57.337Z,65.97
2018-09-09T06:38:57.371Z,65.97
2018-09-09T06:39:57.309Z,65.97
2018-09-09T06:40:57.292Z,66.58
2018-09-09T06:41:57.316Z,66.88
2018-09-09T06:42:57.270Z,67.86
2018-09-09T06:43:57.267Z,65.94
2018-09-09T06:44:57.250Z,65.23
2018-09-09T06:45:57.240Z,65.13
2018-09-09T06:46:57.248Z,65.33
2018-09-09T06:47:57.217Z,66.44
2018-09-09T06:48:57.201Z,65.94
2018-09-09T06:49:57.193Z,66.55
2018-09-09T06:50:57.182Z,66.35
2018-09-09T06:51:57.191Z,64.93
2018-09-09T06:52:57.163Z,65.91
2018-09-09T06:53:57.149Z,64.39
2018-09-09T06:54:57.186Z,64.29
2018-09-09T06:55:57.130Z,64.09
2018-09-09T06:56:57.133Z,64.76
2018-09-09T06:57:57.104Z,64.59
2018-09-09T06:58:57.096Z,64.46
2018-09-09T06:59:57.075Z,62.04
2018-09-09T07:00:57.065Z,62.24
2018-09-09T07:01:57.082Z,62.34
2018-09-09T07:02:57.047Z,63.42
2018-09-09T07:03:57.032Z,63.82
2018-09-09T07:04:57.028Z,62.01
2018-09-09T07:05:57.005Z,61.30
2018-09-09T07:06:57.025Z,62.62
2018-09-09T07:07:56.989Z,61.71
2018-09-09T07:08:56.980Z,61.68
2018-09-09T07:09:56.970Z,60.87
2018-09-09T07:10:57.063Z,60.77
2018-09-09T07:11:57.137Z,60.77
2018-09-09T07:12:56.928Z,60.16
2018-09-09T07:13:56.923Z,60.77
2018-09-09T07:14:56.909Z,61.07
2018-09-09T07:15:56.897Z,60.66
2018-09-09T07:16:56.925Z,61.07
2018-09-09T07:17:56.870Z,61.98
2018-09-09T07:18:56.910Z,60.87
2018-09-09T07:19:57.141Z,60.97
2018-09-09T07:20:56.828Z,61.07
2018-09-09T07:21:56.852Z,60.57
2018-09-09T07:22:56.952Z,60.33
2018-09-09T07:23:56.847Z,60.44
2018-09-09T07:24:57.003Z,60.87
2018-09-09T07:25:56.969Z,61.17
2018-09-09T07:26:56.795Z,60.13
2018-09-09T07:27:56.755Z,60.74
2018-09-09T07:28:56.751Z,61.24
2018-09-09T07:29:56.728Z,60.64
2018-09-09T07:30:56.726Z,60.74
2018-09-09T07:31:56.731Z,60.31
2018-09-09T07:32:56.696Z,59.60
2018-09-09T07:33:56.688Z,59.80
2018-09-09T07:34:56.670Z,59.97
2018-09-09T07:35:56.669Z,61.52
2018-09-09T07:36:56.679Z,58.67
2018-09-09T07:37:56.635Z,59.27
2018-09-09T07:38:56.635Z,59.57
2018-09-09T07:39:56.618Z,58.74
2018-09-09T07:40:56.608Z,59.44
2018-09-09T07:41:56.669Z,58.01
2018-09-09T07:42:56.584Z,57.60
2018-09-09T07:43:56.568Z,58.68
2018-09-09T07:44:56.562Z,58.48
2018-09-09T07:45:56.546Z,58.07
2018-09-09T07:46:56.561Z,56.64
2018-09-09T07:47:56.526Z,56.51
2018-09-09T07:48:56.528Z,56.38
2018-09-09T07:49:56.496Z,55.86
2018-09-09T07:50:56.496Z,55.43
2018-09-09T07:51:56.500Z,54.83
2018-09-09T07:52:56.470Z,53.32
2018-09-09T07:53:56.454Z,53.59
2018-09-09T07:54:56.443Z,52.07
2018-09-09T07:55:56.438Z,53.50
2018-09-09T07:56:56.449Z,51.76
2018-09-09T07:57:56.408Z,52.67
2018-09-09T07:58:56.398Z,51.04
2018-09-09T07:59:56.388Z,53.05
2018-09-09T08:00:56.377Z,51.54
2018-09-09T08:01:56.392Z,51.24
2018-09-09T08:02:56.360Z,51.54
2018-09-09T08:03:56.341Z,51.24
2018-09-09T08:04:56.329Z,51.34
2018-09-09T08:05:56.333Z,52.42
2018-09-09T08:06:56.335Z,53.42
2018-09-09T08:07:56.301Z,51.92
2018-09-09T08:08:56.294Z,50.74
2018-09-09T08:09:56.273Z,51.74
2018-09-09T08:10:56.266Z,51.21
2018-09-09T08:11:56.335Z,53.92
2018-09-09T08:12:56.239Z,52.80
2018-09-09T08:13:56.240Z,51.62
2018-09-09T08:14:56.223Z,51.12
2018-09-09T08:15:56.211Z,51.12
2018-09-09T08:16:56.222Z,53.72
2018-09-09T08:17:56.190Z,51.42
2018-09-09T08:18:56.175Z,52.01
2018-09-09T08:19:56.175Z,51.92
2018-09-09T08:20:56.152Z,52.29
2018-09-09T08:21:56.166Z,51.89
2018-09-09T08:22:56.138Z,50.19
2018-09-09T08:23:56.117Z,52.89
2018-09-09T08:24:56.119Z,50.59
2018-09-09T08:25:56.103Z,50.57
2018-09-09T08:26:56.113Z,50.76
2018-09-09T08:27:56.075Z,50.09
2018-09-09T08:28:56.065Z,52.77
2018-09-09T08:29:56.056Z,52.67
2018-09-09T08:30:56.042Z,50.07
2018-09-09T08:31:56.056Z,50.16
2018-09-09T08:32:56.021Z,52.77
2018-09-09T08:33:56.011Z,51.97
2018-09-09T08:34:56.070Z,50.74
2018-09-09T08:35:55.990Z,49.94
2018-09-09T08:36:56.000Z,50.42
2018-09-09T08:37:55.963Z,48.52
2018-09-09T08:38:55.961Z,51.22
2018-09-09T08:39:55.940Z,50.20
2018-09-09T08:40:55.934Z,49.59
2018-09-09T08:41:55.937Z,49.59
2018-09-09T08:42:55.906Z,49.29
2018-09-09T08:43:55.941Z,48.77
2018-09-09T08:44:55.888Z,47.37
2018-09-09T08:45:55.873Z,47.60
2018-09-09T08:46:55.882Z,49.09
2018-09-09T08:47:55.849Z,50.59
2018-09-09T08:48:55.842Z,49.40
2018-09-09T08:49:55.828Z,48.10
2018-09-09T08:50:55.813Z,48.79
2018-09-09T08:51:55.939Z,47.92
2018-09-09T08:52:55.799Z,49.41
2018-09-09T08:53:55.829Z,49.19
2018-09-09T08:54:55.973Z,49.69
2018-09-09T08:55:55.762Z,49.40
2018-09-09T08:56:55.774Z,47.99
2018-09-09T08:57:55.739Z,47.99
2018-09-09T08:58:55.727Z,50.70
2018-09-09T08:59:55.721Z,49.59
2018-09-09T09:00:55.711Z,49.40
2018-09-09T09:01:55.713Z,49.67
2018-09-09T09:02:55.683Z,46.77
2018-09-09T09:03:55.669Z,49.59
2018-09-09T09:04:55.667Z,48.19
2018-09-09T09:05:55.647Z,49.59
2018-09-09T09:06:55.660Z,47.79
2018-09-09T09:07:55.644Z,50.59
2018-09-09T09:08:55.619Z,49.19
2018-09-09T09:09:55.606Z,49.29
2018-09-09T09:10:55.590Z,50.09
2018-09-09T09:11:55.611Z,49.07
2018-09-09T09:12:55.576Z,48.37
2018-09-09T09:13:55.554Z,48.05
2018-09-09T09:14:55.547Z,48.32
2018-09-09T09:15:55.540Z,48.14
2018-09-09T09:16:55.544Z,46.75
2018-09-09T09:17:55.520Z,47.35
2018-09-09T09:18:55.510Z,47.77
2018-09-09T09:19:55.492Z,49.15
2018-09-09T09:20:55.485Z,49.72
2018-09-09T09:21:55.530Z,48.72
2018-09-09T09:22:55.454Z,48.60
2018-09-09T09:23:55.456Z,46.26
2018-09-09T09:24:55.436Z,45.98
2018-09-09T09:25:55.426Z,46.36
2018-09-09T09:26:55.441Z,45.24
2018-09-09T09:27:55.400Z,44.24
2018-09-09T09:28:55.393Z,44.31
2018-09-09T09:29:55.380Z,45.87
2018-09-09T09:30:55.373Z,44.18
2018-09-09T09:31:55.380Z,43.86
2018-09-09T09:32:55.347Z,44.04
2018-09-09T09:33:55.338Z,43.32
2018-09-09T09:34:55.326Z,41.12
2018-09-09T09:35:55.318Z,41.31
2018-09-09T09:36:55.333Z,42.79
2018-09-09T09:37:55.291Z,43.58
2018-09-09T09:38:55.287Z,42.47
2018-09-09T09:39:55.270Z,40.44
2018-09-09T09:40:55.257Z,38.79
2018-09-09T09:41:55.281Z,39.98
2018-09-09T09:42:55.237Z,40.26
2018-09-09T09:43:55.232Z,40.19
2018-09-09T09:44:55.289Z,40.09
2018-09-09T09:45:55.205Z,40.90
2018-09-09T09:46:55.220Z,40.41
2018-09-09T09:47:55.184Z,41.47
2018-09-09T09:48:55.179Z,38.58
2018-09-09T09:49:55.159Z,38.70
2018-09-09T09:50:55.152Z,39.49
2018-09-09T09:51:55.160Z,39.71
2018-09-09T09:52:55.129Z,41.12
2018-09-09T09:53:55.122Z,42.91
2018-09-09T09:54:55.115Z,41.53
2018-09-09T09:55:55.097Z,40.46
2018-09-09T09:56:55.123Z,41.46
2018-09-09T09:57:55.115Z,44.16
2018-09-09T09:58:55.116Z,42.47
2018-09-09T09:59:55.060Z,42.77
2018-09-09T10:00:55.048Z,43.46
2018-09-09T10:01:55.057Z,42.69
2018-09-09T10:02:55.026Z,42.77
2018-09-09T10:03:55.007Z,44.32
2018-09-09T10:04:54.996Z,41.83
2018-09-09T10:05:54.992Z,41.71
2018-09-09T10:06:54.998Z,41.20
2018-09-09T10:07:54.965Z,40.52
2018-09-09T10:08:55.007Z,40.24
2018-09-09T10:09:54.943Z,42.45
2018-09-09T10:10:54.935Z,44.62
2018-09-09T10:11:54.943Z,44.29
2018-09-09T10:12:54.910Z,42.69
2018-09-09T10:13:54.902Z,43.28
2018-09-09T10:14:54.887Z,42.58
2018-09-09T10:15:54.880Z,42.47
2018-09-09T10:16:54.891Z,40.58
2018-09-09T10:17:54.861Z,42.88
2018-09-09T10:18:54.841Z,42.66
2018-09-09T10:19:54.837Z,42.85
2018-09-09T10:20:54.822Z,41.06
2018-09-09T10:21:54.831Z,39.77
2018-09-09T10:22:54.805Z,40.56
2018-09-09T10:23:54.902Z,42.94
2018-09-09T10:24:54.778Z,42.65
2018-09-09T10:25:54.769Z,40.36
2018-09-09T10:26:54.778Z,41.85
2018-09-09T10:27:54.782Z,39.28
2018-09-09T10:28:54.775Z,42.15
2018-09-09T10:29:54.781Z,40.56
2018-09-09T10:30:54.708Z,40.07
2018-09-09T10:31:54.728Z,41.53
2018-09-09T10:32:54.694Z,41.95
2018-09-09T10:33:54.674Z,42.13
2018-09-09T10:34:54.672Z,41.44
2018-09-09T10:35:54.658Z,40.05
2018-09-09T10:36:54.663Z,41.71
2018-09-09T10:37:54.633Z,40.23
2018-09-09T10:38:54.627Z,38.15
2018-09-09T10:39:54.619Z,38.66
2018-09-09T10:40:54.615Z,36.99
2018-09-09T10:41:54.618Z,38.30
2018-09-09T10:42:54.582Z,42.69
2018-09-09T10:43:54.568Z,43.26
2018-09-09T10:44:54.555Z,41.66
2018-09-09T10:45:54.547Z,41.36
2018-09-09T10:46:54.656Z,40.42
2018-09-09T10:47:54.520Z,37.95
2018-09-09T10:48:54.511Z,41.00
2018-09-09T10:49:54.554Z,38.60
2018-09-09T10:50:54.550Z,37.48
2018-09-09T10:51:54.501Z,36.69
2018-09-09T10:52:54.476Z,36.80
2018-09-09T10:53:54.456Z,39.97
2018-09-09T10:54:54.449Z,38.09
2018-09-09T10:55:54.439Z,39.85
2018-09-09T10:56:54.451Z,37.38
2018-09-09T10:57:54.421Z,37.28
2018-09-09T10:58:54.536Z,37.58
2018-09-09T10:59:54.402Z,37.87
2018-09-09T11:00:54.388Z,36.80
2018-09-09T11:01:54.397Z,37.83
2018-09-09T11:02:54.366Z,38.03
2018-09-09T11:03:54.353Z,39.31
2018-09-09T11:04:54.348Z,37.05
2018-09-09T11:05:54.334Z,42.90
2018-09-09T11:06:54.406Z,41.02
2018-09-09T11:07:54.308Z,38.23
2018-09-09T11:08:54.296Z,38.13
2018-09-09T11:09:54.294Z,38.70
2018-09-09T11:10:54.273Z,36.82
2018-09-09T11:11:54.289Z,37.62
2018-09-09T11:12:54.296Z,37.43
2018-09-09T11:13:54.251Z,37.63
2018-09-09T11:14:54.230Z,39.53
2018-09-09T11:15:54.229Z,38.03
2018-09-09T11:16:54.240Z,41.18
2018-09-09T11:17:54.198Z,40.17
2018-09-09T11:18:54.218Z,36.98
2018-09-09T11:19:54.177Z,36.13
2018-09-09T11:20:54.166Z,37.93
2018-09-09T11:21:54.186Z,37.51
2018-09-09T11:22:54.148Z,38.09
2018-09-09T11:23:54.136Z,36.59
2018-09-09T11:24:54.128Z,36.87
2018-09-09T11:25:54.118Z,39.11
2018-09-09T11:26:54.110Z,36.82
2018-09-09T11:27:54.183Z,37.45
2018-09-09T11:28:54.089Z,35.66
2018-09-09T11:29:54.178Z,36.02
2018-09-09T11:30:54.116Z,34.72
2018-09-09T11:31:54.085Z,35.41
2018-09-09T11:32:54.039Z,34.49
2018-09-09T11:33:54.039Z,35.66
2018-09-09T11:34:54.019Z,30.82
2018-09-09T11:35:54.016Z,32.61
2018-09-09T11:36:54.000Z,30.15
2018-09-09T11:37:54.010Z,32.71
2018-09-09T11:38:53.982Z,35.55
2018-09-09T11:39:53.974Z,33.75
2018-09-09T11:40:53.955Z,32.64
2018-09-09T11:41:53.954Z,34.80
2018-09-09T11:42:53.993Z,30.39
2018-09-09T11:43:53.933Z,32.46
2018-09-09T11:44:53.920Z,32.45
2018-09-09T11:45:53.907Z,31.47
2018-09-09T11:46:53.895Z,33.80
2018-09-09T11:47:53.942Z,29.39
2018-09-09T11:48:53.883Z,29.50
2018-09-09T11:49:53.871Z,32.95
2018-09-09T11:50:53.872Z,34.21
2018-09-09T11:51:53.850Z,32.74
2018-09-09T11:52:53.892Z,30.00
2018-09-09T11:53:53.826Z,31.68
2018-09-09T11:54:53.813Z,33.07
2018-09-09T11:55:53.810Z,30.32
2018-09-09T11:56:53.796Z,30.84
2018-09-09T11:57:53.815Z,31.48
2018-09-09T11:58:53.781Z,33.28
2018-09-09T11:59:53.762Z,34.17
2018-09-09T12:00:53.760Z,35.74
2018-09-09T12:01:53.749Z,36.80
2018-09-09T12:02:53.757Z,34.53
2018-09-09T12:03:53.728Z,33.54
2018-09-09T12:04:53.711Z,38.09
2018-09-09T12:05:53.710Z,35.41
2018-09-09T12:06:53.696Z,32.54
2018-09-09T12:07:53.708Z,32.76
2018-09-09T12:08:53.676Z,33.08
2018-09-09T12:09:53.658Z,33.89
2018-09-09T12:10:53.656Z,33.62
2018-09-09T12:11:53.638Z,34.69
2018-09-09T12:12:53.650Z,33.94
2018-09-09T12:13:53.623Z,33.84
2018-09-09T12:14:53.604Z,34.58
2018-09-09T12:15:53.605Z,37.45
2018-09-09T12:16:53.589Z,35.83
2018-09-09T12:17:53.596Z,33.67
2018-09-09T12:18:53.569Z,34.17
2018-09-09T12:19:53.554Z,35.07
2018-09-09T12:20:53.545Z,34.18
2018-09-09T12:21:53.536Z,36.36
2018-09-09T12:22:53.547Z,35.05
2018-09-09T12:23:53.519Z,37.60
2018-09-09T12:24:53.506Z,38.56
2018-09-09T12:25:53.492Z,34.00
2018-09-09T12:26:53.478Z,34.20
2018-09-09T12:27:53.536Z,33.89
2018-09-09T12:28:53.495Z,34.49
2018-09-09T12:29:53.446Z,33.31
2018-09-09T12:30:53.447Z,33.92
2018-09-09T12:31:53.428Z,33.82
2018-09-09T12:32:53.445Z,36.38
2018-09-09T12:33:53.403Z,34.41
2018-09-09T12:34:53.393Z,34.82
2018-09-09T12:35:53.388Z,35.50
2018-09-09T12:36:53.377Z,34.12
2018-09-09T12:37:53.414Z,37.35
2018-09-09T12:38:53.350Z,37.63
2018-09-09T12:39:53.348Z,34.36
2018-09-09T12:40:53.337Z,36.51
2018-09-09T12:41:53.319Z,33.36
2018-09-09T12:42:53.335Z,35.44
2018-09-09T12:43:53.304Z,34.77
2018-09-09T12:44:53.292Z,34.79
2018-09-09T12:45:53.286Z,34.20
2018-09-09T12:46:53.272Z,34.41
2018-09-09T12:47:53.282Z,37.45
2018-09-09T12:48:53.251Z,35.66
2018-09-09T12:49:53.237Z,35.72
2018-09-09T12:50:53.224Z,36.18
2018-09-09T12:51:53.275Z,32.53